createdAt,value
2022-10-30T00:01:24.478Z,23.63
2022-10-30T00:03:52.875Z,25.48
2022-10-30T00:06:24.007Z,26.77
2022-10-30T00:08:52.625Z,22.35
2022-10-30T00:11:21.081Z,23.95
2022-10-30T00:13:50.400Z,22.98
2022-10-30T00:16:19.270Z,21.88
2022-10-30T00:18:47.752Z,22.83
2022-10-30T00:21:16.702Z,23.35
2022-10-30T00:23:52.857Z,25.88
2022-10-30T00:26:25.894Z,28.85
2022-10-30T00:28:57.563Z,34.85
2022-10-30T00:31:26.115Z,38.13
2022-10-30T00:33:55.668Z,35.92
2022-10-30T00:36:24.562Z,29.65
2022-10-30T00:38:52.884Z,31.13
2022-10-30T00:41:24.379Z,27.38
2022-10-30T00:43:53.990Z,25.45
2022-10-30T00:46:38.055Z,25.95
2022-10-30T00:49:13.124Z,22.58
2022-10-30T00:51:47.005Z,21.55
2022-10-30T00:54:18.298Z,20.70
2022-10-30T00:56:49.219Z,21.33
2022-10-30T00:59:24.979Z,20.35
2022-10-30T01:01:54.314Z,20.00
2022-10-30T01:04:28.999Z,17.10
2022-10-30T01:07:05.660Z,18.05
2022-10-30T01:09:34.655Z,19.63
2022-10-30T01:12:03.280Z,17.13
2022-10-30T01:14:34.070Z,16.73
2022-10-30T01:17:03.296Z,18.23
2022-10-30T01:19:42.768Z,17.10
2022-10-30T01:22:25.200Z,21.02
2022-10-30T01:25:05.908Z,17.27
2022-10-30T01:28:09.294Z,17.10
2022-10-30T01:31:07.853Z,19.70
2022-10-30T01:34:15.512Z,19.90
2022-10-30T01:36:50.000Z,18.67
2022-10-30T01:39:21.834Z,18.90
2022-10-30T01:41:50.774Z,16.90
2022-10-30T01:44:31.963Z,15.65
2022-10-30T01:47:09.469Z,18.33
2022-10-30T01:50:00.608Z,19.10
2022-10-30T01:52:49.772Z,20.00
2022-10-30T01:55:42.468Z,28.67
2022-10-30T01:58:20.225Z,21.70
2022-10-30T02:00:57.025Z,20.87
2022-10-30T02:03:27.387Z,19.92
2022-10-30T02:05:56.186Z,21.70
2022-10-30T02:08:25.709Z,22.15
2022-10-30T02:10:55.983Z,20.55
2022-10-30T02:16:07.219Z,23.17
2022-10-30T02:18:35.666Z,21.25
2022-10-30T02:21:06.821Z,23.90
2022-10-30T02:23:35.420Z,28.10
2022-10-30T02:26:04.206Z,25.67
2022-10-30T02:28:33.168Z,20.77
2022-10-30T02:31:01.639Z,23.23
2022-10-30T02:33:30.415Z,25.33
2022-10-30T02:35:59.090Z,23.30
2022-10-30T02:38:27.566Z,24.73
2022-10-30T02:40:58.283Z,27.55
2022-10-30T02:43:27.062Z,27.08
2022-10-30T02:45:55.718Z,30.48
2022-10-30T02:48:24.150Z,31.80
2022-10-30T02:50:52.974Z,32.95
2022-10-30T02:53:21.282Z,30.80
2022-10-30T02:55:49.786Z,30.33
2022-10-30T02:58:19.070Z,31.08
2022-10-30T03:00:47.696Z,29.15
2022-10-30T03:03:21.418Z,22.13
2022-10-30T03:05:52.733Z,29.10
2022-10-30T03:08:21.122Z,22.17
2022-10-30T03:10:49.684Z,26.02
2022-10-30T03:13:18.329Z,27.63
2022-10-30T03:15:46.978Z,25.80
2022-10-30T03:18:15.346Z,26.00
2022-10-30T03:20:45.951Z,29.98
2022-10-30T03:23:14.405Z,23.17
2022-10-30T03:25:43.159Z,22.85
2022-10-30T03:28:11.750Z,26.52
2022-10-30T03:30:41.011Z,26.13
2022-10-30T03:33:09.955Z,26.45
2022-10-30T03:35:38.519Z,25.90
2022-10-30T03:38:33.001Z,27.73
2022-10-30T03:41:01.700Z,24.45
2022-10-30T03:43:30.799Z,23.52
2022-10-30T03:45:59.277Z,25.83
2022-10-30T03:48:29.302Z,27.35
2022-10-30T03:51:00.448Z,29.88
2022-10-30T03:53:30.101Z,36.47
2022-10-30T03:56:04.250Z,40.55
2022-10-30T03:58:53.178Z,40.28
2022-10-30T04:01:23.877Z,32.00
2022-10-30T04:03:57.565Z,34.03
2022-10-30T04:06:53.068Z,32.67
2022-10-30T04:09:21.564Z,31.40
2022-10-30T04:11:50.004Z,28.17
2022-10-30T04:14:18.978Z,33.40
2022-10-30T04:16:47.802Z,29.55
2022-10-30T04:19:16.298Z,29.38
2022-10-30T04:21:47.996Z,32.25
2022-10-30T04:24:18.909Z,34.42
2022-10-30T04:26:50.926Z,38.72
2022-10-30T04:29:19.631Z,31.30
2022-10-30T04:31:48.962Z,30.80
2022-10-30T04:34:17.542Z,34.28
2022-10-30T04:36:45.920Z,29.15
2022-10-30T04:39:14.670Z,31.48
2022-10-30T04:41:44.602Z,31.20
2022-10-30T04:44:19.813Z,31.00
2022-10-30T04:46:48.404Z,32.28
2022-10-30T04:49:16.807Z,33.70
2022-10-30T04:51:47.782Z,32.20
2022-10-30T04:54:16.742Z,32.88
2022-10-30T04:56:45.399Z,34.22
2022-10-30T04:59:15.410Z,35.38
2022-10-30T05:01:45.387Z,37.88
2022-10-30T05:04:15.352Z,36.65
2022-10-30T05:06:45.039Z,31.60
2022-10-30T05:09:15.416Z,32.78
2022-10-30T05:11:44.523Z,29.63
2022-10-30T05:14:14.876Z,29.73
2022-10-30T05:16:46.215Z,33.22
2022-10-30T05:19:14.734Z,29.17
2022-10-30T05:21:49.818Z,28.55
2022-10-30T05:24:18.971Z,32.88
2022-10-30T05:26:47.618Z,30.83
2022-10-30T05:29:17.899Z,37.80
2022-10-30T05:31:46.381Z,34.67
2022-10-30T05:34:17.982Z,33.78
2022-10-30T05:36:49.181Z,32.25
2022-10-30T05:39:18.418Z,28.15
2022-10-30T05:44:34.367Z,31.10
2022-10-30T05:47:11.560Z,43.95
2022-10-30T05:49:42.963Z,43.20
2022-10-30T05:52:16.480Z,52.10
2022-10-30T05:54:45.166Z,55.25
2022-10-30T05:57:22.183Z,50.40
2022-10-30T05:59:51.171Z,49.33
2022-10-30T06:02:20.720Z,47.55
2022-10-30T06:04:49.882Z,45.08
2022-10-30T06:07:19.738Z,42.13
2022-10-30T06:09:48.224Z,40.30
2022-10-30T06:12:40.134Z,45.57
2022-10-30T06:15:21.779Z,40.40
2022-10-30T06:17:52.517Z,34.58
2022-10-30T06:20:41.172Z,35.92
2022-10-30T06:23:28.618Z,34.28
2022-10-30T06:28:45.366Z,32.17
2022-10-30T06:31:15.914Z,38.28
2022-10-30T06:33:44.331Z,58.65
2022-10-30T06:36:15.238Z,45.60
2022-10-30T06:38:44.461Z,53.25
2022-10-30T06:41:14.958Z,78.10
2022-10-30T06:44:02.364Z,159.40
2022-10-30T06:46:33.941Z,93.35
2022-10-30T06:49:04.144Z,72.68
2022-10-30T06:51:33.130Z,73.90
2022-10-30T06:54:02.113Z,84.50
2022-10-30T06:56:43.007Z,92.55
2022-10-30T06:59:22.003Z,49.47
2022-10-30T07:02:14.304Z,44.37
2022-10-30T07:05:06.158Z,37.70
2022-10-30T07:07:35.277Z,42.40
2022-10-30T07:10:04.080Z,45.35
2022-10-30T07:13:02.355Z,46.30
2022-10-30T07:15:48.967Z,42.58
2022-10-30T07:18:28.827Z,34.75
2022-10-30T07:21:04.877Z,32.50
2022-10-30T07:23:34.367Z,29.67
2022-10-30T07:26:25.996Z,28.05
2022-10-30T07:28:56.794Z,27.10
2022-10-30T07:31:42.363Z,24.13
2022-10-30T07:34:47.744Z,24.35
2022-10-30T07:37:32.739Z,21.40
2022-10-30T07:40:12.515Z,22.40
2022-10-30T07:43:03.038Z,22.92
2022-10-30T07:46:15.293Z,20.70
2022-10-30T07:49:16.144Z,21.63
2022-10-30T07:51:50.652Z,19.25
2022-10-30T07:54:20.443Z,19.55
2022-10-30T07:56:49.459Z,19.83
2022-10-30T07:59:36.358Z,19.40
2022-10-30T08:02:15.813Z,24.90
2022-10-30T08:05:07.462Z,19.60
2022-10-30T08:07:55.019Z,16.40
2022-10-30T08:10:23.852Z,18.30
2022-10-30T08:12:52.428Z,19.40
2022-10-30T08:15:24.573Z,16.33
2022-10-30T08:17:53.836Z,17.88
2022-10-30T08:20:25.547Z,13.95
2022-10-30T08:22:57.339Z,13.75
2022-10-30T08:25:29.350Z,18.10
2022-10-30T08:28:04.302Z,13.63
2022-10-30T08:30:38.325Z,14.55
2022-10-30T08:36:21.192Z,12.93
2022-10-30T08:38:57.909Z,12.05
2022-10-30T08:41:45.710Z,10.80
2022-10-30T08:44:41.424Z,12.30
2022-10-30T08:47:57.386Z,13.93
2022-10-30T08:50:28.549Z,14.30
2022-10-30T08:53:02.289Z,11.38
2022-10-30T08:55:35.226Z,12.82
2022-10-30T08:58:06.168Z,10.82
2022-10-30T09:00:35.989Z,10.00
2022-10-30T09:03:30.591Z,12.52
2022-10-30T09:06:35.039Z,14.00
2022-10-30T09:09:23.930Z,16.40
2022-10-30T09:11:56.146Z,11.95
2022-10-30T09:14:27.581Z,9.85
2022-10-30T09:17:48.530Z,12.65
2022-10-30T09:20:19.299Z,12.55
2022-10-30T09:22:51.264Z,11.73
2022-10-30T09:25:24.851Z,13.10
2022-10-30T09:28:07.918Z,7.65
2022-10-30T09:30:58.958Z,6.97
2022-10-30T09:33:32.591Z,5.93
2022-10-30T09:36:38.929Z,7.82
2022-10-30T09:39:21.839Z,8.65
2022-10-30T09:42:00.606Z,8.23
2022-10-30T09:44:40.570Z,8.18
2022-10-30T09:47:44.658Z,6.20
2022-10-30T09:50:31.356Z,6.20
2022-10-30T09:53:30.935Z,5.47
2022-10-30T09:56:43.689Z,5.10
2022-10-30T09:59:25.346Z,5.70
2022-10-30T10:04:50.052Z,7.68
2022-10-30T10:08:02.973Z,6.18
2022-10-30T10:11:03.287Z,6.22
2022-10-30T10:13:50.963Z,8.30
2022-10-30T10:16:23.897Z,3.88
2022-10-30T10:19:19.404Z,3.25
2022-10-30T10:21:56.271Z,4.20
2022-10-30T10:24:33.462Z,7.03
2022-10-30T10:27:14.997Z,5.55
2022-10-30T10:30:02.698Z,5.03
2022-10-30T10:33:01.656Z,5.38
2022-10-30T10:35:56.364Z,6.63
2022-10-30T10:38:31.633Z,8.20
2022-10-30T10:41:12.085Z,8.88
2022-10-30T10:44:00.266Z,6.53
2022-10-30T10:46:45.228Z,8.63
2022-10-30T10:49:44.781Z,12.07
2022-10-30T10:52:27.598Z,9.32
2022-10-30T10:55:02.814Z,10.05
2022-10-30T10:57:40.748Z,11.57
2022-10-30T11:00:23.959Z,14.95
2022-10-30T11:03:06.539Z,13.20
2022-10-30T11:05:49.778Z,14.73
2022-10-30T11:08:25.492Z,17.33
2022-10-30T11:11:04.697Z,13.90
2022-10-30T11:13:39.379Z,13.02
2022-10-30T11:16:46.462Z,14.02
2022-10-30T11:19:14.995Z,15.48
2022-10-30T11:21:49.158Z,11.82
2022-10-30T11:24:39.633Z,13.93
2022-10-30T11:27:26.466Z,15.35
2022-10-30T11:30:02.040Z,16.95
2022-10-30T11:32:35.098Z,14.52
2022-10-30T11:35:09.567Z,17.27
2022-10-30T11:37:43.592Z,16.77
2022-10-30T11:40:13.753Z,17.92
2022-10-30T11:42:46.556Z,23.85
2022-10-30T11:45:45.741Z,23.48
2022-10-30T11:48:54.865Z,21.83
2022-10-30T11:51:37.318Z,19.35
2022-10-30T11:54:07.915Z,20.05
2022-10-30T11:56:36.537Z,28.92
2022-10-30T11:59:06.097Z,23.83
2022-10-30T12:01:39.513Z,34.60
2022-10-30T12:04:34.591Z,19.20
2022-10-30T12:07:11.048Z,19.05
2022-10-30T12:09:47.528Z,22.17
2022-10-30T12:12:27.139Z,18.92
2022-10-30T12:14:55.977Z,17.88
2022-10-30T12:17:24.385Z,19.17
2022-10-30T12:19:55.613Z,22.65
2022-10-30T12:25:25.149Z,25.05
2022-10-30T12:28:16.250Z,19.98
2022-10-30T12:31:08.464Z,26.37
2022-10-30T12:33:50.592Z,16.73
2022-10-30T12:36:27.169Z,19.48
2022-10-30T12:39:33.927Z,28.27
2022-10-30T12:42:23.345Z,18.45
2022-10-30T12:45:10.353Z,19.83
2022-10-30T12:48:28.351Z,21.60
2022-10-30T12:51:21.388Z,15.57
2022-10-30T12:54:37.365Z,16.58
2022-10-30T12:57:15.223Z,20.48
2022-10-30T13:00:14.115Z,38.72
2022-10-30T13:03:20.081Z,25.15
2022-10-30T13:06:06.036Z,19.60
2022-10-30T13:08:48.608Z,16.50
2022-10-30T13:11:33.279Z,16.45
2022-10-30T13:16:32.351Z,18.65
2022-10-30T13:19:02.727Z,17.30
2022-10-30T13:22:08.173Z,25.30
2022-10-30T13:24:45.734Z,15.90
2022-10-30T13:27:43.955Z,23.60
2022-10-30T13:30:24.604Z,24.48
2022-10-30T13:33:08.578Z,27.00
2022-10-30T13:36:00.529Z,29.65
2022-10-30T13:38:57.016Z,29.55
2022-10-30T13:41:57.109Z,23.95
2022-10-30T13:44:32.855Z,30.08
2022-10-30T13:47:39.885Z,25.35
2022-10-30T13:50:42.146Z,25.75
2022-10-30T13:53:26.925Z,18.05
2022-10-30T13:55:56.816Z,18.08
2022-10-30T13:58:48.554Z,17.88
2022-10-30T14:01:23.853Z,15.90
2022-10-30T14:04:20.817Z,13.00
2022-10-30T14:07:27.978Z,16.25
2022-10-30T14:10:47.708Z,21.13
2022-10-30T14:13:39.005Z,21.52
2022-10-30T14:17:06.102Z,18.75
2022-10-30T14:24:45.124Z,19.95
2022-10-30T14:32:20.768Z,20.17
2022-10-30T14:34:55.558Z,40.88
2022-10-30T14:37:27.772Z,29.17
2022-10-30T14:39:57.511Z,26.70
2022-10-30T14:42:31.986Z,29.58
2022-10-30T14:45:25.185Z,28.65
2022-10-30T14:48:08.770Z,28.63
2022-10-30T14:51:05.861Z,24.65
2022-10-30T14:54:18.174Z,27.33
2022-10-30T14:56:53.198Z,24.17
2022-10-30T14:59:24.866Z,31.35
2022-10-30T15:02:19.841Z,28.95
2022-10-30T15:05:12.984Z,31.20
2022-10-30T15:07:58.018Z,33.35
2022-10-30T15:10:33.726Z,34.28
2022-10-30T15:13:21.555Z,31.95
2022-10-30T15:16:08.484Z,34.38
2022-10-30T15:18:40.107Z,31.27
2022-10-30T15:21:18.920Z,37.38
2022-10-30T15:23:50.378Z,33.13
2022-10-30T15:26:23.164Z,31.17
2022-10-30T15:28:53.392Z,30.75
2022-10-30T15:31:25.886Z,29.50
2022-10-30T15:33:55.753Z,31.67
2022-10-30T15:36:29.045Z,32.85
2022-10-30T15:39:16.686Z,33.53
2022-10-30T15:41:49.098Z,32.45
2022-10-30T15:44:22.606Z,29.80
2022-10-30T15:46:54.264Z,29.85
2022-10-30T15:51:54.517Z,34.00
2022-10-30T15:54:24.881Z,36.30
2022-10-30T15:59:54.602Z,32.70
2022-10-30T16:02:27.079Z,36.65
2022-10-30T16:04:56.017Z,32.25
2022-10-30T16:07:27.604Z,40.60
2022-10-30T16:09:58.510Z,40.15
2022-10-30T16:12:32.793Z,44.63
2022-10-30T16:15:08.660Z,54.50
2022-10-30T16:17:37.320Z,42.45
2022-10-30T16:20:06.152Z,52.28
2022-10-30T16:22:37.114Z,52.40
2022-10-30T16:25:12.953Z,48.08
2022-10-30T16:27:45.946Z,45.53
2022-10-30T16:30:16.532Z,56.17
2022-10-30T16:32:52.861Z,61.97
2022-10-30T16:35:23.904Z,72.22
2022-10-30T16:37:53.919Z,66.77
2022-10-30T16:40:28.571Z,59.55
2022-10-30T16:43:03.558Z,59.90
2022-10-30T16:45:32.277Z,65.00
2022-10-30T16:48:09.210Z,69.47
2022-10-30T16:50:38.941Z,67.85
2022-10-30T16:53:17.781Z,76.78
2022-10-30T16:55:46.709Z,91.05
2022-10-30T16:58:17.259Z,81.85
2022-10-30T17:00:53.330Z,77.38
2022-10-30T17:03:26.647Z,100.00
2022-10-30T17:06:06.401Z,105.38
2022-10-30T17:08:41.022Z,107.75
2022-10-30T17:11:20.775Z,77.65
2022-10-30T17:13:55.286Z,91.57
2022-10-30T17:16:32.876Z,78.57
2022-10-30T17:19:34.416Z,94.25
2022-10-30T17:22:08.192Z,110.38
2022-10-30T17:24:38.823Z,131.70
2022-10-30T17:27:46.573Z,109.82
2022-10-30T17:30:42.275Z,123.53
2022-10-30T17:33:36.740Z,125.68
2022-10-30T17:36:06.747Z,117.90
2022-10-30T17:38:35.182Z,132.98
2022-10-30T17:41:09.320Z,128.02
2022-10-30T17:43:49.738Z,141.48
2022-10-30T17:46:20.346Z,141.00
2022-10-30T17:48:49.284Z,135.10
2022-10-30T17:51:18.776Z,131.77
2022-10-30T17:53:50.432Z,124.22
2022-10-30T17:56:26.051Z,122.35
2022-10-30T17:58:59.792Z,119.78
2022-10-30T18:01:29.368Z,119.80
2022-10-30T18:03:58.655Z,116.53
2022-10-30T18:06:29.077Z,117.13
2022-10-30T18:09:03.200Z,115.07
2022-10-30T18:11:33.219Z,122.38
2022-10-30T18:14:02.322Z,134.10
2022-10-30T18:16:33.491Z,150.43
2022-10-30T18:19:03.664Z,161.95
2022-10-30T18:21:34.582Z,173.48
2022-10-30T18:24:27.429Z,168.50
2022-10-30T18:27:09.082Z,184.32
2022-10-30T18:29:49.656Z,167.45
2022-10-30T18:33:23.302Z,165.88
2022-10-30T18:35:39.469Z,163.98
2022-10-30T18:38:09.565Z,171.13
2022-10-30T18:43:15.851Z,180.68
2022-10-30T18:45:44.590Z,391.67
2022-10-30T18:48:13.699Z,337.55
2022-10-30T18:50:43.189Z,326.33
2022-10-30T18:53:21.309Z,316.15
2022-10-30T18:56:16.440Z,302.85
2022-10-30T18:59:11.997Z,385.80
2022-10-30T19:01:43.060Z,395.40
2022-10-30T19:04:16.770Z,369.98
2022-10-30T19:07:24.198Z,324.15
2022-10-30T19:10:03.944Z,312.05
2022-10-30T19:13:50.761Z,245.48
2022-10-30T19:16:20.658Z,255.75
2022-10-30T19:18:52.265Z,236.63
2022-10-30T19:21:25.812Z,168.65
2022-10-30T19:24:02.870Z,137.95
2022-10-30T19:26:31.704Z,160.25
2022-10-30T19:29:03.134Z,159.95
2022-10-30T19:31:31.877Z,183.52
2022-10-30T19:34:03.731Z,181.82
2022-10-30T19:36:38.481Z,165.40
2022-10-30T19:39:17.107Z,173.77
2022-10-30T19:41:47.125Z,168.55
2022-10-30T19:44:15.771Z,177.45
2022-10-30T19:46:46.698Z,165.00
2022-10-30T19:49:23.600Z,166.52
2022-10-30T19:51:51.975Z,218.63
2022-10-30T19:54:21.043Z,201.50
2022-10-30T19:56:49.561Z,253.18
2022-10-30T19:59:18.390Z,348.63
2022-10-30T20:01:46.914Z,503.25
2022-10-30T20:04:15.854Z,372.73
2022-10-30T20:06:44.678Z,479.83
2022-10-30T20:09:14.756Z,376.63
2022-10-30T20:11:47.694Z,485.50
2022-10-30T20:14:24.241Z,586.70
2022-10-30T20:17:18.068Z,632.42
2022-10-30T20:23:48.122Z,717.50
2022-10-30T20:26:28.951Z,658.42
2022-10-30T20:29:02.806Z,689.97
2022-10-30T20:31:33.276Z,616.97
2022-10-30T20:34:04.353Z,619.95
2022-10-30T20:36:33.605Z,508.63
2022-10-30T20:39:31.870Z,575.80
2022-10-30T20:45:47.962Z,518.30
2022-10-30T20:48:20.480Z,446.63
2022-10-30T20:50:54.229Z,392.55
2022-10-30T20:53:23.330Z,388.35
2022-10-30T20:55:52.209Z,319.30
2022-10-30T20:58:45.896Z,305.88
2022-10-30T21:01:15.287Z,332.80
2022-10-30T21:03:43.709Z,304.10
2022-10-30T21:06:13.550Z,362.33
2022-10-30T21:09:29.291Z,526.15
2022-10-30T21:12:47.272Z,443.17
2022-10-30T21:15:44.654Z,313.77
2022-10-30T21:18:38.279Z,258.70
2022-10-30T21:21:08.813Z,311.08
2022-10-30T21:23:37.493Z,249.60
2022-10-30T21:26:56.144Z,281.13
2022-10-30T21:29:43.361Z,314.70
2022-10-30T21:32:13.532Z,250.93
2022-10-30T21:34:41.981Z,250.73
2022-10-30T21:37:10.704Z,219.25
2022-10-30T21:39:39.753Z,245.70
2022-10-30T21:42:09.209Z,260.30
2022-10-30T21:44:37.571Z,207.65
2022-10-30T21:47:09.144Z,285.20
2022-10-30T21:49:37.891Z,150.93
2022-10-30T21:52:06.247Z,166.48
2022-10-30T21:54:34.571Z,189.68
2022-10-30T21:57:04.263Z,112.00
2022-10-30T21:59:32.702Z,130.93
2022-10-30T22:02:01.177Z,81.40
2022-10-30T22:04:31.269Z,161.80
2022-10-30T22:07:02.646Z,105.68
2022-10-30T22:09:31.256Z,90.20
2022-10-30T22:12:29.264Z,128.50
2022-10-30T22:14:58.002Z,145.40
2022-10-30T22:17:29.492Z,157.60
2022-10-30T22:20:00.957Z,139.88
2022-10-30T22:22:56.496Z,146.65
2022-10-30T22:25:28.638Z,120.13
2022-10-30T22:30:26.591Z,159.77
2022-10-30T22:32:55.020Z,172.80
2022-10-30T22:35:23.928Z,202.95
2022-10-30T22:37:52.457Z,163.60
2022-10-30T22:40:20.820Z,183.15
2022-10-30T22:42:49.432Z,166.27
2022-10-30T22:45:17.757Z,168.55
2022-10-30T22:47:46.035Z,176.45
2022-10-30T22:50:40.930Z,203.75
2022-10-30T22:54:24.147Z,227.20
2022-10-30T22:56:58.240Z,165.00
2022-10-30T22:59:54.381Z,166.30
2022-10-30T23:05:33.339Z,231.80
2022-10-30T23:08:02.309Z,206.15
2022-10-30T23:10:30.842Z,250.02
2022-10-30T23:13:01.565Z,164.35
2022-10-30T23:15:30.058Z,146.23
2022-10-30T23:17:59.174Z,213.52
2022-10-30T23:20:27.708Z,374.15
2022-10-30T23:22:57.493Z,203.15
2022-10-30T23:25:25.856Z,189.85
2022-10-30T23:28:20.244Z,198.18
2022-10-30T23:30:48.697Z,156.55
2022-10-30T23:33:17.329Z,201.55
2022-10-30T23:35:47.024Z,171.60
2022-10-30T23:38:15.685Z,309.30
2022-10-30T23:40:51.362Z,374.15
2022-10-30T23:43:20.131Z,256.73
2022-10-30T23:45:52.786Z,271.15
2022-10-30T23:48:21.270Z,205.43
2022-10-30T23:50:49.673Z,190.30
2022-10-30T23:53:18.338Z,220.55
2022-10-30T23:55:52.030Z,297.80
2022-10-30T23:58:21.799Z,176.73
